sensor_id;sensor_type;location;lat;lon;timestamp;P1;durP1;ratioP1;P2;durP2;ratioP2
70981;SDS011;58640;51.320;9.456;2022-07-23T00:01:26;10.60;;;6.15;;
70981;SDS011;58640;51.320;9.456;2022-07-23T00:03:53;11.55;;;6.25;;
70981;SDS011;58640;51.320;9.456;2022-07-23T00:06:19;9.05;;;6.22;;
70981;SDS011;58640;51.320;9.456;2022-07-23T00:08:46;8.10;;;5.95;;
70981;SDS011;58640;51.320;9.456;2022-07-23T00:11:11;8.70;;;6.18;;
70981;SDS011;58640;51.320;9.456;2022-07-23T00:13:37;7.80;;;5.93;;
70981;SDS011;58640;51.320;9.456;2022-07-23T00:16:02;10.60;;;6.13;;
70981;SDS011;58640;51.320;9.456;2022-07-23T00:18:28;13.00;;;6.97;;
70981;SDS011;58640;51.320;9.456;2022-07-23T00:20:53;11.90;;;6.30;;
70981;SDS011;58640;51.320;9.456;2022-07-23T00:23:18;9.00;;;6.25;;
70981;SDS011;58640;51.320;9.456;2022-07-23T00:25:44;8.07;;;5.82;;
70981;SDS011;58640;51.320;9.456;2022-07-23T00:28:12;7.95;;;5.35;;
70981;SDS011;58640;51.320;9.456;2022-07-23T00:30:38;8.27;;;5.97;;
70981;SDS011;58640;51.320;9.456;2022-07-23T00:33:04;10.30;;;6.47;;
70981;SDS011;58640;51.320;9.456;2022-07-23T00:35:33;13.02;;;6.32;;
70981;SDS011;58640;51.320;9.456;2022-07-23T00:38:00;7.60;;;5.80;;
70981;SDS011;58640;51.320;9.456;2022-07-23T00:40:26;11.05;;;6.53;;
70981;SDS011;58640;51.320;9.456;2022-07-23T00:42:52;14.45;;;6.47;;
70981;SDS011;58640;51.320;9.456;2022-07-23T00:45:18;7.70;;;6.63;;
70981;SDS011;58640;51.320;9.456;2022-07-23T00:47:44;13.65;;;6.50;;
70981;SDS011;58640;51.320;9.456;2022-07-23T00:50:10;10.57;;;6.75;;
70981;SDS011;58640;51.320;9.456;2022-07-23T00:52:37;8.55;;;5.90;;
70981;SDS011;58640;51.320;9.456;2022-07-23T00:55:04;11.70;;;6.40;;
70981;SDS011;58640;51.320;9.456;2022-07-23T00:57:30;8.27;;;5.95;;
70981;SDS011;58640;51.320;9.456;2022-07-23T00:59:56;10.60;;;6.22;;
70981;SDS011;58640;51.320;9.456;2022-07-23T01:02:23;7.78;;;6.05;;
70981;SDS011;58640;51.320;9.456;2022-07-23T01:04:49;15.15;;;6.65;;
70981;SDS011;58640;51.320;9.456;2022-07-23T01:07:15;9.30;;;7.20;;
70981;SDS011;58640;51.320;9.456;2022-07-23T01:09:41;8.63;;;6.25;;
70981;SDS011;58640;51.320;9.456;2022-07-23T01:12:08;7.05;;;6.00;;
70981;SDS011;58640;51.320;9.456;2022-07-23T01:14:33;10.90;;;6.45;;
70981;SDS011;58640;51.320;9.456;2022-07-23T01:16:59;7.72;;;6.22;;
70981;SDS011;58640;51.320;9.456;2022-07-23T01:19:24;11.07;;;6.90;;
70981;SDS011;58640;51.320;9.456;2022-07-23T01:21:50;7.45;;;5.93;;
70981;SDS011;58640;51.320;9.456;2022-07-23T01:24:18;10.45;;;6.72;;
70981;SDS011;58640;51.320;9.456;2022-07-23T01:26:47;8.00;;;6.70;;
70981;SDS011;58640;51.320;9.456;2022-07-23T01:29:13;8.68;;;6.40;;
70981;SDS011;58640;51.320;9.456;2022-07-23T01:31:39;10.82;;;7.32;;
70981;SDS011;58640;51.320;9.456;2022-07-23T01:34:04;10.38;;;5.97;;
70981;SDS011;58640;51.320;9.456;2022-07-23T01:36:32;10.68;;;7.30;;
70981;SDS011;58640;51.320;9.456;2022-07-23T01:38:57;11.15;;;6.57;;
70981;SDS011;58640;51.320;9.456;2022-07-23T01:41:23;8.90;;;6.53;;
70981;SDS011;58640;51.320;9.456;2022-07-23T01:43:48;11.40;;;6.88;;
70981;SDS011;58640;51.320;9.456;2022-07-23T01:46:14;8.48;;;6.28;;
70981;SDS011;58640;51.320;9.456;2022-07-23T01:48:39;9.38;;;6.13;;
70981;SDS011;58640;51.320;9.456;2022-07-23T01:51:04;11.85;;;7.53;;
70981;SDS011;58640;51.320;9.456;2022-07-23T01:53:30;18.52;;;9.68;;
70981;SDS011;58640;51.320;9.456;2022-07-23T01:55:58;14.13;;;8.13;;
70981;SDS011;58640;51.320;9.456;2022-07-23T01:58:24;16.48;;;8.48;;
70981;SDS011;58640;51.320;9.456;2022-07-23T02:00:51;15.32;;;8.38;;
70981;SDS011;58640;51.320;9.456;2022-07-23T02:03:16;15.07;;;10.07;;
70981;SDS011;58640;51.320;9.456;2022-07-23T02:05:42;15.20;;;9.35;;
70981;SDS011;58640;51.320;9.456;2022-07-23T02:08:07;15.25;;;8.77;;
70981;SDS011;58640;51.320;9.456;2022-07-23T02:10:32;13.90;;;9.57;;
70981;SDS011;58640;51.320;9.456;2022-07-23T02:12:58;17.40;;;10.07;;
70981;SDS011;58640;51.320;9.456;2022-07-23T02:15:23;17.05;;;10.38;;
70981;SDS011;58640;51.320;9.456;2022-07-23T02:17:48;15.57;;;9.10;;
70981;SDS011;58640;51.320;9.456;2022-07-23T02:20:14;13.00;;;8.35;;
70981;SDS011;58640;51.320;9.456;2022-07-23T02:22:40;12.50;;;8.07;;
70981;SDS011;58640;51.320;9.456;2022-07-23T02:25:06;14.75;;;9.75;;
70981;SDS011;58640;51.320;9.456;2022-07-23T02:27:32;15.25;;;9.88;;
70981;SDS011;58640;51.320;9.456;2022-07-23T02:29:57;16.60;;;8.85;;
70981;SDS011;58640;51.320;9.456;2022-07-23T02:32:23;14.63;;;9.68;;
70981;SDS011;58640;51.320;9.456;2022-07-23T02:34:49;13.25;;;9.30;;
70981;SDS011;58640;51.320;9.456;2022-07-23T02:37:15;14.25;;;10.07;;
70981;SDS011;58640;51.320;9.456;2022-07-23T02:39:41;15.75;;;9.65;;
70981;SDS011;58640;51.320;9.456;2022-07-23T02:42:06;17.90;;;9.63;;
70981;SDS011;58640;51.320;9.456;2022-07-23T02:44:31;15.20;;;10.55;;
70981;SDS011;58640;51.320;9.456;2022-07-23T02:46:57;14.75;;;9.82;;
70981;SDS011;58640;51.320;9.456;2022-07-23T02:49:22;13.10;;;10.10;;
70981;SDS011;58640;51.320;9.456;2022-07-23T02:51:48;17.50;;;10.32;;
70981;SDS011;58640;51.320;9.456;2022-07-23T02:54:13;17.48;;;10.30;;
70981;SDS011;58640;51.320;9.456;2022-07-23T02:56:38;17.33;;;11.27;;
70981;SDS011;58640;51.320;9.456;2022-07-23T02:59:04;15.60;;;10.80;;
70981;SDS011;58640;51.320;9.456;2022-07-23T03:01:29;16.52;;;10.57;;
70981;SDS011;58640;51.320;9.456;2022-07-23T03:03:54;17.92;;;11.60;;
70981;SDS011;58640;51.320;9.456;2022-07-23T03:06:20;21.52;;;12.13;;
70981;SDS011;58640;51.320;9.456;2022-07-23T03:08:45;14.65;;;11.75;;
70981;SDS011;58640;51.320;9.456;2022-07-23T03:11:11;17.58;;;11.65;;
70981;SDS011;58640;51.320;9.456;2022-07-23T03:13:36;17.25;;;11.82;;
70981;SDS011;58640;51.320;9.456;2022-07-23T03:16:03;19.10;;;11.05;;
70981;SDS011;58640;51.320;9.456;2022-07-23T03:18:28;24.83;;;12.75;;
70981;SDS011;58640;51.320;9.456;2022-07-23T03:20:54;16.85;;;12.23;;
70981;SDS011;58640;51.320;9.456;2022-07-23T03:23:19;17.42;;;12.48;;
70981;SDS011;58640;51.320;9.456;2022-07-23T03:25:45;21.08;;;12.70;;
70981;SDS011;58640;51.320;9.456;2022-07-23T03:28:13;17.65;;;11.75;;
70981;SDS011;58640;51.320;9.456;2022-07-23T03:30:42;16.60;;;12.45;;
70981;SDS011;58640;51.320;9.456;2022-07-23T03:33:18;15.38;;;11.13;;
70981;SDS011;58640;51.320;9.456;2022-07-23T03:35:44;17.83;;;11.82;;
70981;SDS011;58640;51.320;9.456;2022-07-23T03:38:10;17.38;;;12.55;;
70981;SDS011;58640;51.320;9.456;2022-07-23T03:40:36;19.50;;;11.70;;
70981;SDS011;58640;51.320;9.456;2022-07-23T03:43:01;13.32;;;9.77;;
70981;SDS011;58640;51.320;9.456;2022-07-23T03:45:27;18.48;;;11.73;;
70981;SDS011;58640;51.320;9.456;2022-07-23T03:47:52;17.65;;;11.68;;
70981;SDS011;58640;51.320;9.456;2022-07-23T03:50:18;17.85;;;12.20;;
70981;SDS011;58640;51.320;9.456;2022-07-23T03:52:43;19.55;;;11.25;;
70981;SDS011;58640;51.320;9.456;2022-07-23T03:55:08;15.57;;;10.43;;
70981;SDS011;58640;51.320;9.456;2022-07-23T03:57:34;15.13;;;11.02;;
70981;SDS011;58640;51.320;9.456;2022-07-23T04:00:00;15.63;;;10.60;;
70981;SDS011;58640;51.320;9.456;2022-07-23T04:02:26;20.10;;;11.68;;
70981;SDS011;58640;51.320;9.456;2022-07-23T04:04:51;16.15;;;10.52;;
70981;SDS011;58640;51.320;9.456;2022-07-23T04:07:16;15.13;;;10.18;;
70981;SDS011;58640;51.320;9.456;2022-07-23T04:09:42;17.45;;;11.48;;
70981;SDS011;58640;51.320;9.456;2022-07-23T04:12:08;17.60;;;10.85;;
70981;SDS011;58640;51.320;9.456;2022-07-23T04:14:34;19.27;;;12.27;;
70981;SDS011;58640;51.320;9.456;2022-07-23T04:16:59;19.77;;;11.13;;
70981;SDS011;58640;51.320;9.456;2022-07-23T04:19:25;16.13;;;10.95;;
70981;SDS011;58640;51.320;9.456;2022-07-23T04:21:51;14.23;;;11.40;;
70981;SDS011;58640;51.320;9.456;2022-07-23T04:24:16;15.23;;;10.27;;
70981;SDS011;58640;51.320;9.456;2022-07-23T04:26:42;16.25;;;11.55;;
70981;SDS011;58640;51.320;9.456;2022-07-23T04:29:08;17.48;;;11.35;;
70981;SDS011;58640;51.320;9.456;2022-07-23T04:31:34;12.93;;;9.45;;
70981;SDS011;58640;51.320;9.456;2022-07-23T04:33:59;15.73;;;11.63;;
70981;SDS011;58640;51.320;9.456;2022-07-23T04:36:24;16.27;;;11.73;;
70981;SDS011;58640;51.320;9.456;2022-07-23T04:38:50;16.02;;;11.45;;
70981;SDS011;58640;51.320;9.456;2022-07-23T04:41:15;15.90;;;11.65;;
70981;SDS011;58640;51.320;9.456;2022-07-23T04:43:40;15.35;;;11.80;;
70981;SDS011;58640;51.320;9.456;2022-07-23T04:46:06;19.75;;;13.13;;
70981;SDS011;58640;51.320;9.456;2022-07-23T04:48:31;18.85;;;12.18;;
70981;SDS011;58640;51.320;9.456;2022-07-23T04:50:56;16.08;;;11.98;;
70981;SDS011;58640;51.320;9.456;2022-07-23T04:53:22;19.30;;;11.77;;
70981;SDS011;58640;51.320;9.456;2022-07-23T04:55:47;15.90;;;11.57;;
70981;SDS011;58640;51.320;9.456;2022-07-23T04:58:13;18.48;;;11.45;;
70981;SDS011;58640;51.320;9.456;2022-07-23T05:00:38;14.73;;;10.70;;
70981;SDS011;58640;51.320;9.456;2022-07-23T05:03:03;15.65;;;11.25;;
70981;SDS011;58640;51.320;9.456;2022-07-23T05:05:29;16.88;;;11.55;;
70981;SDS011;58640;51.320;9.456;2022-07-23T05:07:54;15.98;;;11.45;;
70981;SDS011;58640;51.320;9.456;2022-07-23T05:10:19;18.25;;;12.23;;
70981;SDS011;58640;51.320;9.456;2022-07-23T05:12:46;17.63;;;11.73;;
70981;SDS011;58640;51.320;9.456;2022-07-23T05:15:11;12.90;;;9.57;;
70981;SDS011;58640;51.320;9.456;2022-07-23T05:17:37;15.18;;;10.93;;
70981;SDS011;58640;51.320;9.456;2022-07-23T05:20:02;17.80;;;10.98;;
70981;SDS011;58640;51.320;9.456;2022-07-23T05:22:28;15.75;;;11.80;;
70981;SDS011;58640;51.320;9.456;2022-07-23T05:24:53;18.52;;;9.75;;
70981;SDS011;58640;51.320;9.456;2022-07-23T05:27:19;16.15;;;11.15;;
70981;SDS011;58640;51.320;9.456;2022-07-23T05:29:44;15.55;;;10.57;;
70981;SDS011;58640;51.320;9.456;2022-07-23T05:32:10;15.70;;;10.38;;
70981;SDS011;58640;51.320;9.456;2022-07-23T05:34:35;20.25;;;12.18;;
70981;SDS011;58640;51.320;9.456;2022-07-23T05:37:00;16.80;;;10.48;;
70981;SDS011;58640;51.320;9.456;2022-07-23T05:39:26;17.30;;;11.93;;
70981;SDS011;58640;51.320;9.456;2022-07-23T05:41:51;17.40;;;10.55;;
70981;SDS011;58640;51.320;9.456;2022-07-23T05:44:16;17.40;;;11.07;;
70981;SDS011;58640;51.320;9.456;2022-07-23T05:46:42;19.20;;;11.45;;
70981;SDS011;58640;51.320;9.456;2022-07-23T05:49:07;17.60;;;10.73;;
70981;SDS011;58640;51.320;9.456;2022-07-23T05:51:33;24.45;;;11.23;;
70981;SDS011;58640;51.320;9.456;2022-07-23T05:53:58;16.70;;;10.18;;
70981;SDS011;58640;51.320;9.456;2022-07-23T05:56:23;17.58;;;9.82;;
70981;SDS011;58640;51.320;9.456;2022-07-23T05:58:49;12.38;;;9.45;;
70981;SDS011;58640;51.320;9.456;2022-07-23T06:01:14;13.20;;;9.93;;
70981;SDS011;58640;51.320;9.456;2022-07-23T06:03:40;14.75;;;9.80;;
70981;SDS011;58640;51.320;9.456;2022-07-23T06:06:05;13.25;;;10.02;;
70981;SDS011;58640;51.320;9.456;2022-07-23T06:08:31;14.07;;;9.23;;
70981;SDS011;58640;51.320;9.456;2022-07-23T06:10:57;18.05;;;8.88;;
70981;SDS011;58640;51.320;9.456;2022-07-23T06:13:22;13.27;;;8.80;;
70981;SDS011;58640;51.320;9.456;2022-07-23T06:15:48;12.43;;;8.40;;
70981;SDS011;58640;51.320;9.456;2022-07-23T06:18:13;13.52;;;8.13;;
70981;SDS011;58640;51.320;9.456;2022-07-23T06:20:39;11.32;;;8.23;;
70981;SDS011;58640;51.320;9.456;2022-07-23T06:23:04;12.10;;;7.25;;
70981;SDS011;58640;51.320;9.456;2022-07-23T06:25:29;12.95;;;8.25;;
70981;SDS011;58640;51.320;9.456;2022-07-23T06:27:55;13.10;;;7.57;;
70981;SDS011;58640;51.320;9.456;2022-07-23T06:30:20;10.68;;;7.07;;
70981;SDS011;58640;51.320;9.456;2022-07-23T06:32:47;12.13;;;8.30;;
70981;SDS011;58640;51.320;9.456;2022-07-23T06:35:13;12.05;;;8.60;;
70981;SDS011;58640;51.320;9.456;2022-07-23T06:37:39;15.68;;;7.95;;
70981;SDS011;58640;51.320;9.456;2022-07-23T06:40:04;12.13;;;7.85;;
70981;SDS011;58640;51.320;9.456;2022-07-23T06:42:30;11.77;;;7.05;;
70981;SDS011;58640;51.320;9.456;2022-07-23T06:44:55;12.80;;;7.70;;
70981;SDS011;58640;51.320;9.456;2022-07-23T06:47:21;11.38;;;7.88;;
70981;SDS011;58640;51.320;9.456;2022-07-23T06:49:46;11.57;;;7.75;;
70981;SDS011;58640;51.320;9.456;2022-07-23T06:52:11;12.38;;;7.95;;
70981;SDS011;58640;51.320;9.456;2022-07-23T06:54:37;9.45;;;7.22;;
70981;SDS011;58640;51.320;9.456;2022-07-23T06:57:02;9.63;;;6.78;;
70981;SDS011;58640;51.320;9.456;2022-07-23T06:59:28;10.95;;;7.40;;
70981;SDS011;58640;51.320;9.456;2022-07-23T07:01:53;11.57;;;7.22;;
70981;SDS011;58640;51.320;9.456;2022-07-23T07:04:19;14.90;;;7.35;;
70981;SDS011;58640;51.320;9.456;2022-07-23T07:06:44;13.55;;;7.20;;
70981;SDS011;58640;51.320;9.456;2022-07-23T07:09:09;9.40;;;6.88;;
70981;SDS011;58640;51.320;9.456;2022-07-23T07:11:35;10.20;;;6.93;;
70981;SDS011;58640;51.320;9.456;2022-07-23T07:14:00;11.15;;;6.88;;
70981;SDS011;58640;51.320;9.456;2022-07-23T07:16:26;8.68;;;5.28;;
70981;SDS011;58640;51.320;9.456;2022-07-23T07:18:51;7.50;;;4.57;;
70981;SDS011;58640;51.320;9.456;2022-07-23T07:21:16;6.03;;;4.50;;
70981;SDS011;58640;51.320;9.456;2022-07-23T07:23:42;7.88;;;4.82;;
70981;SDS011;58640;51.320;9.456;2022-07-23T07:26:07;7.55;;;4.57;;
70981;SDS011;58640;51.320;9.456;2022-07-23T07:28:32;6.72;;;4.75;;
70981;SDS011;58640;51.320;9.456;2022-07-23T07:30:58;6.43;;;4.40;;
70981;SDS011;58640;51.320;9.456;2022-07-23T07:33:23;8.77;;;4.30;;
70981;SDS011;58640;51.320;9.456;2022-07-23T07:35:48;5.07;;;4.50;;
70981;SDS011;58640;51.320;9.456;2022-07-23T07:38:14;6.10;;;3.90;;
70981;SDS011;58640;51.320;9.456;2022-07-23T07:40:39;6.10;;;3.90;;
70981;SDS011;58640;51.320;9.456;2022-07-23T07:43:05;4.35;;;3.70;;
70981;SDS011;58640;51.320;9.456;2022-07-23T07:45:30;6.43;;;4.15;;
70981;SDS011;58640;51.320;9.456;2022-07-23T07:47:56;5.78;;;3.13;;
70981;SDS011;58640;51.320;9.456;2022-07-23T07:50:22;7.65;;;2.97;;
70981;SDS011;58640;51.320;9.456;2022-07-23T07:52:48;4.75;;;3.20;;
70981;SDS011;58640;51.320;9.456;2022-07-23T07:55:13;5.10;;;2.97;;
70981;SDS011;58640;51.320;9.456;2022-07-23T07:57:39;5.50;;;2.83;;
70981;SDS011;58640;51.320;9.456;2022-07-23T08:00:05;6.20;;;3.15;;
70981;SDS011;58640;51.320;9.456;2022-07-23T08:02:54;4.10;;;3.05;;
70981;SDS011;58640;51.320;9.456;2022-07-23T08:05:22;3.38;;;2.70;;
70981;SDS011;58640;51.320;9.456;2022-07-23T08:07:49;3.40;;;2.33;;
70981;SDS011;58640;51.320;9.456;2022-07-23T08:10:15;2.55;;;2.22;;
70981;SDS011;58640;51.320;9.456;2022-07-23T08:12:45;4.97;;;2.35;;
70981;SDS011;58640;51.320;9.456;2022-07-23T08:15:17;4.30;;;2.50;;
70981;SDS011;58640;51.320;9.456;2022-07-23T08:17:44;7.28;;;2.95;;
70981;SDS011;58640;51.320;9.456;2022-07-23T08:20:11;2.70;;;2.50;;
70981;SDS011;58640;51.320;9.456;2022-07-23T08:25:09;3.05;;;2.25;;
70981;SDS011;58640;51.320;9.456;2022-07-23T08:27:35;4.25;;;2.50;;
70981;SDS011;58640;51.320;9.456;2022-07-23T08:30:00;3.78;;;2.00;;
70981;SDS011;58640;51.320;9.456;2022-07-23T08:32:26;7.47;;;1.98;;
70981;SDS011;58640;51.320;9.456;2022-07-23T08:34:51;4.55;;;2.53;;
70981;SDS011;58640;51.320;9.456;2022-07-23T08:37:16;4.43;;;2.90;;
70981;SDS011;58640;51.320;9.456;2022-07-23T08:39:42;4.55;;;2.70;;
70981;SDS011;58640;51.320;9.456;2022-07-23T08:42:07;4.38;;;2.60;;
70981;SDS011;58640;51.320;9.456;2022-07-23T08:44:33;8.15;;;3.10;;
70981;SDS011;58640;51.320;9.456;2022-07-23T08:47:00;3.72;;;2.50;;
70981;SDS011;58640;51.320;9.456;2022-07-23T08:49:26;4.57;;;2.60;;
70981;SDS011;58640;51.320;9.456;2022-07-23T08:51:52;3.63;;;2.38;;
70981;SDS011;58640;51.320;9.456;2022-07-23T08:54:19;4.35;;;2.33;;
70981;SDS011;58640;51.320;9.456;2022-07-23T08:56:46;3.45;;;2.40;;
70981;SDS011;58640;51.320;9.456;2022-07-23T08:59:12;3.65;;;2.40;;
70981;SDS011;58640;51.320;9.456;2022-07-23T09:01:38;2.72;;;2.38;;
70981;SDS011;58640;51.320;9.456;2022-07-23T09:04:04;4.85;;;2.83;;
70981;SDS011;58640;51.320;9.456;2022-07-23T09:06:29;4.85;;;2.50;;
70981;SDS011;58640;51.320;9.456;2022-07-23T09:08:55;3.00;;;2.38;;
70981;SDS011;58640;51.320;9.456;2022-07-23T09:11:21;4.85;;;2.75;;
70981;SDS011;58640;51.320;9.456;2022-07-23T09:13:50;6.47;;;3.00;;
70981;SDS011;58640;51.320;9.456;2022-07-23T09:16:24;6.45;;;3.03;;
70981;SDS011;58640;51.320;9.456;2022-07-23T09:18:53;3.03;;;2.22;;
70981;SDS011;58640;51.320;9.456;2022-07-23T09:34:08;4.68;;;2.58;;
70981;SDS011;58640;51.320;9.456;2022-07-23T09:36:35;5.38;;;2.78;;
70981;SDS011;58640;51.320;9.456;2022-07-23T09:39:00;3.67;;;1.98;;
70981;SDS011;58640;51.320;9.456;2022-07-23T09:41:26;3.00;;;2.30;;
70981;SDS011;58640;51.320;9.456;2022-07-23T09:44:05;4.03;;;2.42;;
70981;SDS011;58640;51.320;9.456;2022-07-23T09:46:41;3.25;;;2.13;;
70981;SDS011;58640;51.320;9.456;2022-07-23T09:49:12;5.28;;;2.55;;
70981;SDS011;58640;51.320;9.456;2022-07-23T09:51:47;5.47;;;2.83;;
70981;SDS011;58640;51.320;9.456;2022-07-23T09:54:24;6.03;;;2.90;;
70981;SDS011;58640;51.320;9.456;2022-07-23T09:56:57;4.88;;;2.65;;
70981;SDS011;58640;51.320;9.456;2022-07-23T09:59:25;3.58;;;2.45;;
70981;SDS011;58640;51.320;9.456;2022-07-23T10:01:56;4.22;;;2.38;;
70981;SDS011;58640;51.320;9.456;2022-07-23T10:04:24;6.22;;;2.42;;
70981;SDS011;58640;51.320;9.456;2022-07-23T10:06:52;6.05;;;2.30;;
70981;SDS011;58640;51.320;9.456;2022-07-23T10:09:32;3.47;;;2.47;;
70981;SDS011;58640;51.320;9.456;2022-07-23T10:12:02;1.98;;;1.80;;
70981;SDS011;58640;51.320;9.456;2022-07-23T10:14:47;4.97;;;2.20;;
70981;SDS011;58640;51.320;9.456;2022-07-23T10:17:14;2.53;;;1.80;;
70981;SDS011;58640;51.320;9.456;2022-07-23T10:19:40;2.42;;;1.70;;
70981;SDS011;58640;51.320;9.456;2022-07-23T10:22:12;3.03;;;1.70;;
70981;SDS011;58640;51.320;9.456;2022-07-23T10:30:14;2.80;;;1.42;;
70981;SDS011;58640;51.320;9.456;2022-07-23T10:38:24;2.95;;;1.92;;
70981;SDS011;58640;51.320;9.456;2022-07-23T10:40:56;5.88;;;1.83;;
70981;SDS011;58640;51.320;9.456;2022-07-23T10:43:24;4.45;;;2.40;;
70981;SDS011;58640;51.320;9.456;2022-07-23T10:45:50;5.47;;;1.80;;
70981;SDS011;58640;51.320;9.456;2022-07-23T10:56:15;3.28;;;2.42;;
70981;SDS011;58640;51.320;9.456;2022-07-23T10:58:45;4.38;;;2.20;;
70981;SDS011;58640;51.320;9.456;2022-07-23T11:04:03;7.70;;;2.67;;
70981;SDS011;58640;51.320;9.456;2022-07-23T11:09:25;3.60;;;2.35;;
70981;SDS011;58640;51.320;9.456;2022-07-23T11:14:59;4.00;;;2.28;;
70981;SDS011;58640;51.320;9.456;2022-07-23T11:17:24;3.22;;;2.25;;
70981;SDS011;58640;51.320;9.456;2022-07-23T11:22:45;4.80;;;2.00;;
70981;SDS011;58640;51.320;9.456;2022-07-23T11:25:34;3.17;;;1.83;;
70981;SDS011;58640;51.320;9.456;2022-07-23T11:28:16;4.00;;;2.13;;
70981;SDS011;58640;51.320;9.456;2022-07-23T11:30:46;2.72;;;1.80;;
70981;SDS011;58640;51.320;9.456;2022-07-23T11:35:38;3.92;;;2.70;;
70981;SDS011;58640;51.320;9.456;2022-07-23T11:38:16;8.23;;;2.20;;
70981;SDS011;58640;51.320;9.456;2022-07-23T11:40:49;7.18;;;2.83;;
70981;SDS011;58640;51.320;9.456;2022-07-23T11:43:19;4.43;;;1.60;;
70981;SDS011;58640;51.320;9.456;2022-07-23T11:45:47;3.42;;;2.28;;
70981;SDS011;58640;51.320;9.456;2022-07-23T11:48:16;3.10;;;2.05;;
70981;SDS011;58640;51.320;9.456;2022-07-23T11:50:42;3.85;;;2.22;;
70981;SDS011;58640;51.320;9.456;2022-07-23T11:53:08;3.45;;;2.03;;
70981;SDS011;58640;51.320;9.456;2022-07-23T11:55:33;3.17;;;1.85;;
70981;SDS011;58640;51.320;9.456;2022-07-23T11:57:59;4.82;;;2.67;;
70981;SDS011;58640;51.320;9.456;2022-07-23T12:00:27;5.00;;;2.05;;
70981;SDS011;58640;51.320;9.456;2022-07-23T12:02:56;2.70;;;1.77;;
70981;SDS011;58640;51.320;9.456;2022-07-23T12:05:26;2.45;;;2.00;;
70981;SDS011;58640;51.320;9.456;2022-07-23T12:07:54;3.50;;;2.03;;
70981;SDS011;58640;51.320;9.456;2022-07-23T12:13:03;5.53;;;2.20;;
70981;SDS011;58640;51.320;9.456;2022-07-23T12:15:35;4.22;;;2.10;;
70981;SDS011;58640;51.320;9.456;2022-07-23T12:18:04;2.25;;;2.05;;
70981;SDS011;58640;51.320;9.456;2022-07-23T12:20:32;3.15;;;2.55;;
70981;SDS011;58640;51.320;9.456;2022-07-23T12:23:03;3.45;;;2.58;;
70981;SDS011;58640;51.320;9.456;2022-07-23T12:25:32;3.90;;;2.53;;
70981;SDS011;58640;51.320;9.456;2022-07-23T12:30:31;5.90;;;2.58;;
70981;SDS011;58640;51.320;9.456;2022-07-23T12:33:03;3.92;;;2.25;;
70981;SDS011;58640;51.320;9.456;2022-07-23T12:35:31;5.30;;;2.40;;
70981;SDS011;58640;51.320;9.456;2022-07-23T12:38:05;5.00;;;2.50;;
70981;SDS011;58640;51.320;9.456;2022-07-23T12:40:34;4.45;;;2.35;;
70981;SDS011;58640;51.320;9.456;2022-07-23T12:43:05;2.58;;;2.38;;
70981;SDS011;58640;51.320;9.456;2022-07-23T12:45:46;2.47;;;2.28;;
70981;SDS011;58640;51.320;9.456;2022-07-23T12:48:21;3.30;;;2.88;;
70981;SDS011;58640;51.320;9.456;2022-07-23T12:50:48;5.90;;;2.60;;
70981;SDS011;58640;51.320;9.456;2022-07-23T12:55:41;3.78;;;2.42;;
70981;SDS011;58640;51.320;9.456;2022-07-23T12:58:11;3.40;;;2.78;;
70981;SDS011;58640;51.320;9.456;2022-07-23T13:03:36;3.95;;;2.50;;
70981;SDS011;58640;51.320;9.456;2022-07-23T13:06:07;5.20;;;2.70;;
70981;SDS011;58640;51.320;9.456;2022-07-23T13:08:35;9.05;;;2.47;;
70981;SDS011;58640;51.320;9.456;2022-07-23T13:11:02;5.45;;;3.30;;
70981;SDS011;58640;51.320;9.456;2022-07-23T13:13:30;4.20;;;2.60;;
70981;SDS011;58640;51.320;9.456;2022-07-23T13:15:57;5.53;;;3.00;;
70981;SDS011;58640;51.320;9.456;2022-07-23T13:18:23;3.75;;;2.78;;
70981;SDS011;58640;51.320;9.456;2022-07-23T13:20:49;5.40;;;2.95;;
70981;SDS011;58640;51.320;9.456;2022-07-23T13:23:15;3.65;;;2.90;;
70981;SDS011;58640;51.320;9.456;2022-07-23T13:25:41;3.38;;;2.72;;
70981;SDS011;58640;51.320;9.456;2022-07-23T13:28:06;4.03;;;2.90;;
70981;SDS011;58640;51.320;9.456;2022-07-23T13:30:32;5.63;;;3.05;;
70981;SDS011;58640;51.320;9.456;2022-07-23T13:32:58;5.13;;;3.47;;
70981;SDS011;58640;51.320;9.456;2022-07-23T13:35:24;6.82;;;3.85;;
70981;SDS011;58640;51.320;9.456;2022-07-23T13:37:49;4.50;;;3.67;;
70981;SDS011;58640;51.320;9.456;2022-07-23T13:40:15;3.95;;;3.08;;
70981;SDS011;58640;51.320;9.456;2022-07-23T13:42:41;3.75;;;3.20;;
70981;SDS011;58640;51.320;9.456;2022-07-23T13:45:06;5.65;;;3.65;;
70981;SDS011;58640;51.320;9.456;2022-07-23T13:47:32;4.72;;;3.95;;
70981;SDS011;58640;51.320;9.456;2022-07-23T13:49:57;7.13;;;3.60;;
70981;SDS011;58640;51.320;9.456;2022-07-23T13:52:23;6.53;;;3.90;;
70981;SDS011;58640;51.320;9.456;2022-07-23T13:54:49;9.30;;;3.65;;
70981;SDS011;58640;51.320;9.456;2022-07-23T13:57:14;4.00;;;3.28;;
70981;SDS011;58640;51.320;9.456;2022-07-23T13:59:40;5.60;;;3.63;;
70981;SDS011;58640;51.320;9.456;2022-07-23T14:02:05;4.43;;;3.30;;
70981;SDS011;58640;51.320;9.456;2022-07-23T14:04:31;3.83;;;3.03;;
70981;SDS011;58640;51.320;9.456;2022-07-23T14:06:57;4.47;;;3.55;;
70981;SDS011;58640;51.320;9.456;2022-07-23T14:09:23;3.90;;;3.15;;
70981;SDS011;58640;51.320;9.456;2022-07-23T14:11:48;8.02;;;4.05;;
70981;SDS011;58640;51.320;9.456;2022-07-23T14:14:15;3.92;;;3.47;;
70981;SDS011;58640;51.320;9.456;2022-07-23T14:16:41;4.85;;;3.60;;
70981;SDS011;58640;51.320;9.456;2022-07-23T14:19:07;5.68;;;3.75;;
70981;SDS011;58640;51.320;9.456;2022-07-23T14:21:32;3.45;;;3.08;;
70981;SDS011;58640;51.320;9.456;2022-07-23T14:23:58;4.28;;;3.75;;
70981;SDS011;58640;51.320;9.456;2022-07-23T14:26:23;3.90;;;3.35;;
70981;SDS011;58640;51.320;9.456;2022-07-23T14:28:48;7.88;;;2.80;;
70981;SDS011;58640;51.320;9.456;2022-07-23T14:31:14;4.70;;;3.08;;
70981;SDS011;58640;51.320;9.456;2022-07-23T14:33:39;3.92;;;2.80;;
70981;SDS011;58640;51.320;9.456;2022-07-23T14:36:05;4.88;;;3.42;;
70981;SDS011;58640;51.320;9.456;2022-07-23T14:38:30;3.85;;;2.75;;
70981;SDS011;58640;51.320;9.456;2022-07-23T14:40:56;4.78;;;2.88;;
70981;SDS011;58640;51.320;9.456;2022-07-23T14:43:22;3.40;;;2.50;;
70981;SDS011;58640;51.320;9.456;2022-07-23T14:45:47;3.40;;;2.60;;
70981;SDS011;58640;51.320;9.456;2022-07-23T14:48:13;5.00;;;2.67;;
70981;SDS011;58640;51.320;9.456;2022-07-23T14:50:38;4.72;;;2.17;;
70981;SDS011;58640;51.320;9.456;2022-07-23T14:53:04;2.50;;;2.30;;
70981;SDS011;58640;51.320;9.456;2022-07-23T14:55:32;4.28;;;2.40;;
70981;SDS011;58640;51.320;9.456;2022-07-23T14:57:59;4.78;;;2.30;;
70981;SDS011;58640;51.320;9.456;2022-07-23T15:00:24;2.70;;;2.50;;
70981;SDS011;58640;51.320;9.456;2022-07-23T15:02:53;3.92;;;2.40;;
70981;SDS011;58640;51.320;9.456;2022-07-23T15:05:19;4.13;;;2.10;;
70981;SDS011;58640;51.320;9.456;2022-07-23T15:07:44;3.80;;;1.90;;
70981;SDS011;58640;51.320;9.456;2022-07-23T15:10:09;2.60;;;2.17;;
70981;SDS011;58640;51.320;9.456;2022-07-23T15:12:35;5.85;;;2.20;;
70981;SDS011;58640;51.320;9.456;2022-07-23T15:15:00;4.65;;;2.13;;
70981;SDS011;58640;51.320;9.456;2022-07-23T15:17:26;2.40;;;2.08;;
70981;SDS011;58640;51.320;9.456;2022-07-23T15:19:51;3.88;;;2.35;;
70981;SDS011;58640;51.320;9.456;2022-07-23T15:22:17;2.45;;;1.83;;
70981;SDS011;58640;51.320;9.456;2022-07-23T15:24:42;2.80;;;2.40;;
70981;SDS011;58640;51.320;9.456;2022-07-23T15:27:08;2.88;;;2.00;;
70981;SDS011;58640;51.320;9.456;2022-07-23T15:29:34;2.78;;;1.90;;
70981;SDS011;58640;51.320;9.456;2022-07-23T15:31:59;4.47;;;1.88;;
70981;SDS011;58640;51.320;9.456;2022-07-23T15:34:28;3.80;;;2.50;;